M I D A S
Marine Information and Data Acquisition System
Tripno 1732 of the Zeeleeuw from 2009-07-08 06:33:02 to 2009-07-08 17:29:49
Back to CruiseResearch ActivitiesStationsMapUnderway DataData graphs

EquipmentUnitsComment
TimeDGPSUTC
LatitudeDGPSDM.mWGS84
LongitudeDGPSDM.mWGS84
HeadingGyrodeg 
SOGDGPSknotsSpeed over ground
COGDGPSdegCourse over ground
DepthEcho soundermeters200 kHz
Missing or incorrect values are displayed as -999
Navigation data collected by the RV Zeeleeuw from 2009-07-08 06:36:07 to 2009-07-08 17:39:20
Time Latitude Longitude Heading SOG COG Depth
2009-07-08 06:37:16 51°13.679 2°55.894 110.5 3.4 290 -999
2009-07-08 06:38:16 51°13.694 2°55.804 101.9 3.1 285 -999
2009-07-08 06:39:16 51°13.704 2°55.764 75 0.5 16 4.6
2009-07-08 06:40:16 51°13.699 2°55.742 42.9 0.5 350 -999
2009-07-08 06:41:15 51°13.747 2°55.718 332.1 5.1 330 10.8
2009-07-08 06:42:13 51°13.836 2°55.636 333.3 7.2 331 9.8
2009-07-08 06:43:16 51°13.956 2°55.543 335.3 7.8 334 -999
2009-07-08 06:44:14 51°14.069 2°55.454 335.7 8 333 10.3
2009-07-08 06:45:12 51°14.181 2°55.354 329.8 8 326 11
2009-07-08 06:46:12 51°14.287 2°55.211 316.1 8.8 313 10.2
2009-07-08 06:47:12 51°14.385 2°55.026 310 9.1 307 9.5
2009-07-08 06:48:12 51°14.494 2°54.84 326.7 10.4 321 9.5
2009-07-08 06:49:12 51°14.643 2°54.674 334.9 11.2 327 9.1
2009-07-08 06:50:12 51°14.8 2°54.516 334.1 11.2 325 9
2009-07-08 06:51:12 51°14.952 2°54.351 332.4 11 325 7.9
2009-07-08 06:52:12 51°15.102 2°54.187 333.3 10.9 325 7.9
2009-07-08 06:53:12 51°15.25 2°54.017 331.8 11 324 8.3
2009-07-08 06:54:12 51°15.4 2°53.851 334.2 11 325 8.9
2009-07-08 06:55:12 51°15.552 2°53.681 332.8 11.2 322 9.9
2009-07-08 06:56:12 51°15.702 2°53.508 332.6 11.3 324 10.4
2009-07-08 06:57:12 51°15.857 2°53.342 335.4 11.2 326 10.6
2009-07-08 06:58:12 51°16.016 2°53.191 340.2 11.1 331 11.5
2009-07-08 06:59:12 51°16.178 2°53.046 339.9 11.1 331 11.2
2009-07-08 07:00:12 51°16.344 2°52.916 343.5 11.2 336 11.5
2009-07-08 07:01:12 51°16.517 2°52.816 350.7 10.9 343 10.7
2009-07-08 07:02:12 51°16.693 2°52.743 354.3 10.9 348 9.9
2009-07-08 07:03:12 51°16.869 2°52.687 355 10.7 349 9.2
2009-07-08 07:04:12 51°17.043 2°52.647 358.1 10.6 353 9.3
2009-07-08 07:05:12 51°17.215 2°52.656 19.4 10.2 21 9.7
2009-07-08 07:06:12 51°17.35 2°52.811 47.2 10.1 50 9.1
2009-07-08 07:07:12 51°17.451 2°53.032 55.8 10.5 58 9.2
2009-07-08 07:08:12 51°17.559 2°53.24 48 10.1 47 9
2009-07-08 07:09:12 51°17.671 2°53.436 51.9 10.1 44 8.9
2009-07-08 07:10:12 51°17.779 2°53.639 50.1 9.9 44 8.7
2009-07-08 07:11:11 51°17.886 2°53.838 51.6 10 52 9.1
2009-07-08 07:12:11 51°17.993 2°54.04 51.5 10 47 8.8
2009-07-08 07:13:11 51°18.09 2°54.253 59.3 10 53 9.2
2009-07-08 07:14:11 51°18.17 2°54.482 62.9 9.9 58 8.9
2009-07-08 07:15:11 51°18.251 2°54.711 59.3 9.9 54 9.2
2009-07-08 07:16:11 51°18.345 2°54.926 53.7 9.8 56 9.4
2009-07-08 07:17:11 51°18.44 2°55.137 56.8 10 57 9.5
2009-07-08 07:18:13 51°18.545 2°55.349 55.5 9.9 50 9.4
2009-07-08 07:19:11 51°18.64 2°55.553 53.1 9.8 48 9.5
2009-07-08 07:20:12 51°18.738 2°55.768 56 9.8 59 9.5
2009-07-08 07:21:11 51°18.834 2°55.973 56 9.8 50 9.6
2009-07-08 07:22:13 51°18.934 2°56.188 54.5 9.7 53 9.9
2009-07-08 07:23:12 51°19.03 2°56.394 54.2 9.8 59 9.9
2009-07-08 07:24:12 51°19.126 2°56.601 55.4 9.8 52 9.5
2009-07-08 07:25:12 51°19.222 2°56.811 54.3 9.7 51 9.5
2009-07-08 07:26:12 51°19.315 2°57.024 56.8 9.8 43 9.7
2009-07-08 07:27:12 51°19.413 2°57.231 53 9.7 53 9.5
2009-07-08 07:28:12 51°19.51 2°57.44 56.6 9.9 52 9.4
2009-07-08 07:29:12 51°19.589 2°57.666 64.8 10 72 9.6
2009-07-08 07:30:12 51°19.656 2°57.903 66.1 9.9 69 9.7
2009-07-08 07:31:12 51°19.723 2°58.139 66.5 9.5 66 9.4
2009-07-08 07:32:12 51°19.788 2°58.373 67.1 9.6 67 9.2
2009-07-08 07:33:12 51°19.853 2°58.605 66.1 9.5 69 9.3
2009-07-08 07:34:11 51°19.917 2°58.831 64.7 9.6 63 9.2
2009-07-08 07:35:12 51°19.986 2°59.065 65.7 9.6 65 9.2
2009-07-08 07:36:12 51°20.053 2°59.295 65 9.4 70 9.4
2009-07-08 07:37:12 51°20.122 2°59.522 63.5 9.4 58 9.1
2009-07-08 07:38:12 51°20.187 2°59.749 65.9 9.6 71 9.8
2009-07-08 07:39:12 51°20.254 2°59.977 66.5 9.5 70 9.7
2009-07-08 07:40:12 51°20.318 3°0.203 66.1 9.3 63 9.3
2009-07-08 07:41:12 51°20.384 3°0.427 65.4 9.5 63 9.5
2009-07-08 07:42:12 51°20.447 3°0.652 65.4 9.4 71 9.5
2009-07-08 07:43:12 51°20.51 3°0.877 64.9 9.3 71 9.4
2009-07-08 07:44:12 51°20.574 3°1.1 63.2 9.3 65 9.4
2009-07-08 07:45:12 51°20.637 3°1.325 66.1 9.3 68 9.6
2009-07-08 07:46:12 51°20.703 3°1.55 66.1 9.3 63 9.4
2009-07-08 07:47:11 51°20.765 3°1.758 63.6 8.6 60 9.7
2009-07-08 07:48:12 51°20.828 3°1.977 67.6 9 70 9.7
2009-07-08 07:49:12 51°20.89 3°2.189 65.2 8.7 65 9.7
2009-07-08 07:50:12 51°20.95 3°2.4 66.3 8.7 65 9.9
2009-07-08 07:51:12 51°21.012 3°2.608 66.1 8.7 64 9.7
2009-07-08 07:52:11 51°21.07 3°2.814 63.4 8.5 69 10
2009-07-08 07:53:12 51°21.128 3°3.024 64.5 8.6 67 9.9
2009-07-08 07:54:12 51°21.183 3°3.236 67 8.6 67 10.4
2009-07-08 07:55:12 51°21.238 3°3.438 63.5 7.5 64 10.3
2009-07-08 07:56:12 51°21.281 3°3.605 65.5 6.4 68 10.3
2009-07-08 07:57:12 51°21.319 3°3.759 65.7 6.3 71 10.4
2009-07-08 07:58:12 51°21.358 3°3.914 64.4 6.3 65 10.2
2009-07-08 07:59:12 51°21.395 3°4.065 64.7 6.1 68 10.8
2009-07-08 08:00:12 51°21.433 3°4.216 64.4 6.1 63 10.3
2009-07-08 08:01:12 51°21.469 3°4.366 65.9 6 69 10.7
2009-07-08 08:02:12 51°21.505 3°4.517 65.4 6.1 68 11.1
2009-07-08 08:03:12 51°21.578 3°4.618 33.3 6.1 24 10.9
2009-07-08 08:04:12 51°21.705 3°4.714 34.9 9.3 30 11.3
2009-07-08 08:05:12 51°21.819 3°4.888 52.6 9.6 49 11.3
2009-07-08 08:06:11 51°21.879 3°5.119 73.4 10 77 4.8
2009-07-08 08:07:12 51°21.914 3°5.381 74.9 9.8 75 11
2009-07-08 08:08:12 51°21.95 3°5.634 74.1 9.7 75 11.1
2009-07-08 08:09:12 51°21.984 3°5.888 73.7 9.9 76 11.1
2009-07-08 08:10:11 51°22.018 3°6.14 74.8 10 82 11.8
2009-07-08 08:11:12 51°22.056 3°6.394 74.1 9.6 79 11.3
2009-07-08 08:12:12 51°22.086 3°6.648 79.8 9.7 82 11.7
2009-07-08 08:13:12 51°22.1 3°6.907 81.7 9.7 79 11.8
2009-07-08 08:14:12 51°22.116 3°7.165 81.4 10 85 11.7
2009-07-08 08:15:12 51°22.133 3°7.429 80.7 10 85 11.7
2009-07-08 08:16:11 51°22.168 3°7.677 67.4 9.5 71 11.7
2009-07-08 08:17:12 51°22.236 3°7.902 62.1 7.4 65 11.9
2009-07-08 08:18:12 51°22.272 3°8.024 65.7 3.9 73 12.1
2009-07-08 08:19:12 51°22.292 3°8.127 70.5 4.6 72 11.7
2009-07-08 08:20:12 51°22.32 3°8.282 70.8 7.6 73 12.1
2009-07-08 08:21:11 51°22.362 3°8.502 73.3 9.5 72 12.2
2009-07-08 08:22:12 51°22.404 3°8.753 71.6 9.6 69 12.3
2009-07-08 08:23:12 51°22.44 3°9.004 77 9.8 80 12.6
2009-07-08 08:24:12 51°22.476 3°9.254 76.3 9.7 73 12.8
2009-07-08 08:25:12 51°22.513 3°9.506 74.2 9.8 78 12.8
2009-07-08 08:26:12 51°22.552 3°9.754 75.8 9.6 80 13.2
2009-07-08 08:27:12 51°22.57 3°10.01 86.1 9.9 92 14.1
2009-07-08 08:28:12 51°22.549 3°10.272 106.3 10.4 109 18.1
2009-07-08 08:29:12 51°22.481 3°10.528 110.4 10.5 112 17
2009-07-08 08:30:12 51°22.415 3°10.784 104.9 10.2 106 15.8
2009-07-08 08:31:12 51°22.393 3°11.044 89.8 8.4 97 15.1
2009-07-08 08:32:12 51°22.404 3°11.171 54.9 3.3 45 15.4
2009-07-08 08:33:11 51°22.428 3°11.191 28.4 0.7 -999 15.4
2009-07-08 08:34:12 51°22.436 3°11.186 13.2 0.3 294 15.1
2009-07-08 08:35:12 51°22.434 3°11.177 8 0.5 224 15.5
2009-07-08 08:36:12 51°22.426 3°11.169 9.7 0.6 205 15.6
2009-07-08 08:37:11 51°22.416 3°11.163 17.8 0.8 176 15.9
2009-07-08 08:38:12 51°22.402 3°11.157 28.4 1.1 203 15.5
2009-07-08 08:39:12 51°22.386 3°11.148 37.1 0.9 205 15.1
2009-07-08 08:40:12 51°22.372 3°11.138 37.9 0.9 202 15.1
2009-07-08 08:41:12 51°22.357 3°11.131 37.6 1 189 15.7
2009-07-08 08:42:12 51°22.344 3°11.124 37.4 0.7 202 16.2
2009-07-08 08:43:12 51°22.331 3°11.118 33.8 0.6 198 15.8
2009-07-08 08:44:12 51°22.354 3°11.127 10.5 4.3 1 15.4
2009-07-08 08:45:12 51°22.466 3°11.145 20.5 8.1 15 15.6
2009-07-08 08:46:12 51°22.609 3°11.115 349.6 9.7 342 14.6
2009-07-08 08:47:12 51°22.774 3°11.031 351.4 10.6 341 13.5
2009-07-08 08:48:12 51°22.943 3°10.937 345.6 10.8 337 13.1
2009-07-08 08:49:11 51°23.1 3°10.808 338.4 10.8 331 12.8
2009-07-08 08:50:12 51°23.262 3°10.664 339 11 331 12.7
2009-07-08 08:51:12 51°23.421 3°10.527 339.6 10.9 330 12.9
2009-07-08 08:52:12 51°23.555 3°10.418 357.9 5.6 351 13.5
2009-07-08 08:53:12 51°23.586 3°10.482 94.7 3.4 109 13.1
2009-07-08 08:54:11 51°23.533 3°10.515 170.2 3.7 187 13.5
2009-07-08 08:55:12 51°23.478 3°10.465 222.9 3.9 223 13.3
2009-07-08 08:56:12 51°23.436 3°10.383 241.3 4.4 235 13.3
2009-07-08 08:57:12 51°23.399 3°10.275 257.7 4.7 247 13.5
2009-07-08 08:58:12 51°23.391 3°10.157 289.9 4.4 274 13.3
2009-07-08 08:59:11 51°23.398 3°10.044 291.7 4.4 275 13
2009-07-08 09:00:12 51°23.407 3°9.93 289 4.3 275 13.8
2009-07-08 09:01:12 51°23.418 3°9.825 304.2 3.9 290 13.9
2009-07-08 09:02:12 51°23.453 3°9.763 347.5 3.1 333 13.7
2009-07-08 09:03:12 51°23.504 3°9.751 10.3 3.2 -999 13.9
2009-07-08 09:04:12 51°23.551 3°9.78 35.9 3.1 29 14.1
2009-07-08 09:05:12 51°23.593 3°9.831 41.7 3.1 37 13.9
2009-07-08 09:06:11 51°23.63 3°9.888 51.1 3.1 50 13.5
2009-07-08 09:07:12 51°23.653 3°9.964 62.6 3.2 68 13.9
2009-07-08 09:08:12 51°23.67 3°10.037 62.2 2.9 66 13.6
2009-07-08 09:09:12 51°23.693 3°10.102 56.3 2.9 61 13.5
2009-07-08 09:10:12 51°23.716 3°10.17 59 3 67 13.5
2009-07-08 09:11:12 51°23.732 3°10.243 68.3 3.1 80 13.7
2009-07-08 09:12:12 51°23.732 3°10.328 85.5 3.4 97 13.6
2009-07-08 09:13:12 51°23.727 3°10.416 78.5 3.1 91 14.3
2009-07-08 09:14:12 51°23.736 3°10.496 66.9 2.9 73 14
2009-07-08 09:15:12 51°23.75 3°10.573 63.2 3.1 71 13.4
2009-07-08 09:16:12 51°23.764 3°10.648 63.6 3 70 13.8
2009-07-08 09:17:12 51°23.782 3°10.723 64 3 66 13.9
2009-07-08 09:18:12 51°23.799 3°10.8 66 3 71 14.4
2009-07-08 09:19:12 51°23.811 3°10.879 69.6 3.1 72 13.8
2009-07-08 09:20:12 51°23.822 3°10.959 68.9 3 75 13.7
2009-07-08 09:21:11 51°23.833 3°11.037 67.4 3 72 14.1
2009-07-08 09:22:12 51°23.847 3°11.117 68.4 3.2 75 13.7
2009-07-08 09:23:12 51°23.858 3°11.197 68.1 3.1 79 14.4
2009-07-08 09:24:12 51°23.87 3°11.279 68.9 3.3 83 13.6
2009-07-08 09:25:12 51°23.88 3°11.361 68 3.3 77 14.6
2009-07-08 09:26:11 51°23.893 3°11.443 68.7 3.4 75 14.1
2009-07-08 09:27:12 51°23.905 3°11.531 69.3 3.4 81 14.4
2009-07-08 09:28:12 51°23.89 3°11.619 113.3 3.7 129 14.2
2009-07-08 09:29:12 51°23.834 3°11.675 148.2 4 161 12.9
2009-07-08 09:30:12 51°23.771 3°11.687 174.9 3.8 182 12.4
2009-07-08 09:31:11 51°23.71 3°11.674 189.1 3.7 193 12.4
2009-07-08 09:32:12 51°23.651 3°11.637 206.7 3.8 208 12.2
2009-07-08 09:33:12 51°23.598 3°11.583 222.9 3.6 219 12.4
2009-07-08 09:34:12 51°23.561 3°11.532 237.4 2.4 226 12.3
2009-07-08 09:35:12 51°23.533 3°11.496 241.5 1.9 215 12.3
2009-07-08 09:36:11 51°23.509 3°11.469 242.2 1.5 220 12.5
2009-07-08 09:37:12 51°23.486 3°11.448 235.2 1.6 208 12.4
2009-07-08 09:38:12 51°23.461 3°11.429 226.5 1.7 203 12.6
2009-07-08 09:39:12 51°23.431 3°11.401 228.7 3.3 218 12.3
2009-07-08 09:40:11 51°23.405 3°11.294 280.1 4.9 275 12.7
2009-07-08 09:41:12 51°23.442 3°11.192 322.5 4.5 308 12.7
2009-07-08 09:42:12 51°23.47 3°11.063 294.5 7.3 287 12.9
2009-07-08 09:43:12 51°23.528 3°10.841 300.6 10.3 295 13.3
2009-07-08 09:44:12 51°23.605 3°10.577 302.2 11 295 13.5
2009-07-08 09:45:12 51°23.682 3°10.31 300.1 11.1 295 13.9
2009-07-08 09:46:12 51°23.769 3°10.056 314.2 10 313 13.8
2009-07-08 09:47:11 51°23.918 3°9.95 348.1 10.4 345 16.7
2009-07-08 09:48:11 51°24.088 3°9.884 349.6 10.6 346 18.5
2009-07-08 09:49:12 51°24.266 3°9.826 350 10.7 350 18.6
2009-07-08 09:50:12 51°24.426 3°9.748 340.8 10 338 13.1
2009-07-08 09:51:11 51°24.565 3°9.611 322.9 10 318 10.9
2009-07-08 09:52:11 51°24.649 3°9.381 293.3 10.2 286 10.2
2009-07-08 09:53:12 51°24.692 3°9.114 290 10.1 285 10.2
2009-07-08 09:54:12 51°24.737 3°8.848 291.4 10.5 284 9.7
2009-07-08 09:55:12 51°24.791 3°8.59 296.9 10.3 291 9.6
2009-07-08 09:56:12 51°24.857 3°8.334 298.9 10.3 292 9.4
2009-07-08 09:57:12 51°24.94 3°8.103 311.7 9.6 305 8.7
2009-07-08 09:58:12 51°25.056 3°7.952 344.1 8.8 341 8.6
2009-07-08 09:59:12 51°25.204 3°7.949 13.7 9.1 13 8.4
2009-07-08 10:00:12 51°25.338 3°8.059 41.5 9.4 46 8.9
2009-07-08 10:01:11 51°25.454 3°8.225 38.9 9.5 38 8.5
2009-07-08 10:02:12 51°25.575 3°8.396 38.5 9.5 39 8.4
2009-07-08 10:03:12 51°25.696 3°8.563 38.9 9.6 41 8.6
2009-07-08 10:04:12 51°25.796 3°8.769 49.1 9.8 56 8.8
2009-07-08 10:05:12 51°25.892 3°8.982 47.6 9.9 58 9.4
2009-07-08 10:06:12 51°25.987 3°9.2 49.4 10.1 53 9.7
2009-07-08 10:07:12 51°26.084 3°9.416 49.9 10 52 8.8
2009-07-08 10:08:12 51°26.181 3°9.637 52.1 10.2 58 8.9
2009-07-08 10:09:12 51°26.28 3°9.855 48.6 10.4 58 10
2009-07-08 10:10:12 51°26.374 3°10.083 52 10.5 59 9
2009-07-08 10:11:12 51°26.449 3°10.335 62 10.7 70 9.8
2009-07-08 10:12:12 51°26.52 3°10.593 60.7 10.9 71 10
2009-07-08 10:13:12 51°26.594 3°10.848 60.1 10.4 60 9.2
2009-07-08 10:14:12 51°26.666 3°11.104 61.3 10.5 65 9.2
2009-07-08 10:15:12 51°26.741 3°11.358 57.6 10.4 69 9.3
2009-07-08 10:16:12 51°26.816 3°11.61 60 10.7 66 8.9
2009-07-08 10:17:12 51°26.891 3°11.867 55.6 10.7 67 9.2
2009-07-08 10:18:12 51°26.961 3°12.126 66.8 10.9 73 8.9
2009-07-08 10:19:12 51°27.006 3°12.407 72.7 10.7 74 8.7
2009-07-08 10:20:12 51°27.052 3°12.69 70.9 10.9 70 8.5
2009-07-08 10:21:11 51°27.097 3°12.969 69.7 11.1 72 8.7
2009-07-08 10:22:11 51°27.147 3°13.248 71.9 11 75 8.5
2009-07-08 10:23:12 51°27.199 3°13.53 67.6 10.9 74 9.1
2009-07-08 10:24:12 51°27.233 3°13.79 84.4 7.6 97 8.7
2009-07-08 10:25:12 51°27.177 3°13.906 147.4 4.9 154 9
2009-07-08 10:26:12 51°27.11 3°13.92 201.1 3.7 190 8.8
2009-07-08 10:27:12 51°27.052 3°13.902 218.8 3.4 195 8.9
2009-07-08 10:28:12 51°27.003 3°13.858 248.8 3.6 220 9.1
2009-07-08 10:29:12 51°26.964 3°13.785 260.6 3.5 235 8.5
2009-07-08 10:30:12 51°26.937 3°13.7 270.8 3.7 245 8.5
2009-07-08 10:31:12 51°26.913 3°13.611 268.8 3.5 243 8.7
2009-07-08 10:32:11 51°26.88 3°13.528 255.7 4.1 229 9
2009-07-08 10:33:12 51°26.847 3°13.44 271.4 3.6 248 9
2009-07-08 10:34:12 51°26.835 3°13.356 286.4 3.3 265 9
2009-07-08 10:35:12 51°26.841 3°13.265 299.1 3.3 282 8.5
2009-07-08 10:36:12 51°26.85 3°13.19 301.9 2.7 283 8.6
2009-07-08 10:37:11 51°26.862 3°13.119 303.5 3 284 8.6
2009-07-08 10:38:11 51°26.873 3°13.038 294.6 3.2 276 8.2
2009-07-08 10:39:12 51°26.875 3°12.95 285.9 3.5 266 8.6
2009-07-08 10:40:12 51°26.869 3°12.849 280.8 4 260 8.8
2009-07-08 10:41:11 51°26.858 3°12.754 281.4 3.2 254 8.9
2009-07-08 10:42:12 51°26.845 3°12.679 282.5 3 253 8.9
2009-07-08 10:43:12 51°26.834 3°12.607 282.4 3.1 263 8.4
2009-07-08 10:44:11 51°26.826 3°12.522 283.8 3.4 264 8.6
2009-07-08 10:45:11 51°26.82 3°12.429 283.1 3.6 258 9.2
2009-07-08 10:46:12 51°26.81 3°12.341 278.4 3.4 251 8.9
2009-07-08 10:47:12 51°26.777 3°12.256 253.2 4.4 226 9
2009-07-08 10:48:12 51°26.721 3°12.181 232.3 4.7 213 8.7
2009-07-08 10:49:12 51°26.646 3°12.128 216.3 5.1 204 8.5
2009-07-08 10:50:12 51°26.566 3°12.088 209.8 5.1 190 9.1
2009-07-08 10:51:12 51°26.494 3°12.066 205.9 3.9 190 8.7
2009-07-08 10:52:12 51°26.433 3°12.057 206.4 3.4 182 8.4
2009-07-08 10:53:12 51°26.379 3°12.054 205.7 3 186 8.3
2009-07-08 10:54:12 51°26.325 3°12.051 206.9 3.3 185 8.2
2009-07-08 10:55:12 51°26.269 3°12.046 206.6 3.4 184 8.4
2009-07-08 10:56:12 51°26.214 3°12.042 208.1 3.3 180 8.8
2009-07-08 10:57:12 51°26.158 3°12.038 204.1 3.2 187 8.2
2009-07-08 10:58:12 51°26.103 3°12.033 207.9 3.3 182 8.4
2009-07-08 10:59:12 51°26.05 3°12.028 210.5 3.1 179 8.7
2009-07-08 11:00:12 51°25.998 3°12.023 213.2 3 185 8.6
2009-07-08 11:01:12 51°25.945 3°12.011 221.5 3.8 193 8.3
2009-07-08 11:02:12 51°25.892 3°11.985 227.3 2.9 191 8.4
2009-07-08 11:03:12 51°25.85 3°11.978 223.7 2.3 181 8.4
2009-07-08 11:04:12 51°25.815 3°11.981 223.3 1.9 177 8
2009-07-08 11:05:12 51°25.782 3°11.989 224.8 2.1 183 8.3
2009-07-08 11:06:12 51°25.752 3°11.942 281.4 3 264 8.4
2009-07-08 11:07:12 51°25.803 3°11.895 359.5 5.1 8 8.3
2009-07-08 11:08:12 51°25.922 3°11.967 20 9.7 25 8.7
2009-07-08 11:09:12 51°26.07 3°12.1 26.9 10.5 33 8.4
2009-07-08 11:10:12 51°26.194 3°12.301 42.8 10.7 50 8.4
2009-07-08 11:11:12 51°26.305 3°12.532 50.2 11 54 7.8
2009-07-08 11:12:12 51°26.408 3°12.774 52.8 11.3 56 8.1
2009-07-08 11:13:12 51°26.509 3°13.022 53.1 11.3 61 8.3
2009-07-08 11:14:12 51°26.59 3°13.297 60.6 11.5 69 8.5
2009-07-08 11:15:12 51°26.667 3°13.575 61.3 11.4 67 8.5
2009-07-08 11:16:12 51°26.745 3°13.851 62.5 11.2 64 8.7
2009-07-08 11:17:12 51°26.827 3°14.124 60.1 11.2 64 9.2
2009-07-08 11:18:12 51°26.883 3°14.277 22.4 3.8 43 10.1
2009-07-08 11:19:12 51°26.903 3°14.323 26.3 1.7 84 9.1
2009-07-08 11:20:12 51°26.903 3°14.364 24.2 1.7 98 9.4
2009-07-08 11:21:12 51°26.897 3°14.402 22.5 1.7 109 9.1
2009-07-08 11:22:12 51°26.885 3°14.438 24 1.8 122 9.2
2009-07-08 11:23:12 51°26.868 3°14.472 25.5 1.6 129 9.2
2009-07-08 11:24:12 51°26.85 3°14.507 29.1 1.7 134 9.5
2009-07-08 11:25:12 51°26.83 3°14.541 34.9 1.7 131 9.5
2009-07-08 11:26:12 51°26.819 3°14.58 22.1 1.4 84 9.2
2009-07-08 11:27:12 51°26.831 3°14.614 353.2 1.8 34 9.5
2009-07-08 11:28:12 51°26.879 3°14.631 352.7 4.1 4 9.5
2009-07-08 11:29:12 51°26.969 3°14.606 341.2 6.8 342 9.3
2009-07-08 11:30:12 51°27.085 3°14.505 327.6 8.6 328 9.3
2009-07-08 11:31:12 51°27.216 3°14.373 328.6 9.4 329 9.5
2009-07-08 11:32:12 51°27.344 3°14.226 319.3 9.5 314 9.3
2009-07-08 11:33:12 51°27.45 3°14.036 312.9 9.7 310 9.7
2009-07-08 11:34:12 51°27.551 3°13.85 313.6 9.4 311 9.8
2009-07-08 11:35:12 51°27.659 3°13.66 314.4 9.5 313 9.8
2009-07-08 11:36:12 51°27.767 3°13.48 315.3 9.3 314 10.2
2009-07-08 11:37:12 51°27.876 3°13.296 315.1 9.7 313 10
2009-07-08 11:38:12 51°27.986 3°13.11 314.9 9.7 312 10.4
2009-07-08 11:39:12 51°28.095 3°12.917 315.1 9.8 311 10.9
2009-07-08 11:40:12 51°28.204 3°12.73 315.7 9.6 312 10.4
2009-07-08 11:41:12 51°28.311 3°12.547 316.2 9.5 315 11.1
2009-07-08 11:42:12 51°28.42 3°12.365 316.4 9.6 315 11.8
2009-07-08 11:43:11 51°28.524 3°12.182 315.3 9.3 314 10.7
2009-07-08 11:44:12 51°28.628 3°11.996 314.8 9.2 312 11.7
2009-07-08 11:45:12 51°28.726 3°11.8 311 9.5 308 11.6
2009-07-08 11:46:12 51°28.822 3°11.602 312.1 9.5 307 12.7
2009-07-08 11:47:12 51°28.917 3°11.408 312.2 9.5 311 13.7
2009-07-08 11:48:12 51°29.014 3°11.216 312.2 9.5 310 14.3
2009-07-08 11:49:12 51°29.114 3°11.016 312.7 9.7 310 15.3
2009-07-08 11:50:12 51°29.218 3°10.82 312.4 9.6 309 14.5
2009-07-08 11:51:12 51°29.318 3°10.622 311.8 9.6 308 16.2
2009-07-08 11:52:13 51°29.414 3°10.429 312.3 9.3 311 16.6
2009-07-08 11:53:12 51°29.514 3°10.236 312.8 9.7 311 17.1
2009-07-08 11:54:12 51°29.619 3°10.034 312.1 9.8 309 17.8
2009-07-08 11:55:12 51°29.723 3°9.831 310.7 9.7 307 18.3
2009-07-08 11:56:12 51°29.827 3°9.624 311.7 10 310 18.5
2009-07-08 11:57:12 51°29.932 3°9.42 312.4 10.1 310 19.3
2009-07-08 11:58:12 51°30.036 3°9.218 312.2 9.9 310 19.1
2009-07-08 11:59:12 51°30.139 3°9.016 311 9.6 308 19.5
2009-07-08 12:00:12 51°30.236 3°8.805 308.6 10 306 20.3
2009-07-08 12:01:12 51°30.336 3°8.593 309.1 10.2 307 20.4
2009-07-08 12:02:12 51°30.439 3°8.378 309.9 10.3 306 23.4
2009-07-08 12:03:12 51°30.54 3°8.163 308.6 9.6 306 23.9
2009-07-08 12:04:12 51°30.64 3°7.955 309.6 10.2 309 24.2
2009-07-08 12:05:12 51°30.742 3°7.738 309.1 10.2 306 26.2
2009-07-08 12:06:12 51°30.843 3°7.523 309.4 10.2 308 24.2
2009-07-08 12:07:12 51°30.944 3°7.308 309.5 10.3 307 26.8
2009-07-08 12:08:12 51°31.048 3°7.09 309.8 9.9 306 23.2
2009-07-08 12:09:12 51°31.15 3°6.879 309.3 10 308 24.8
2009-07-08 12:10:12 51°31.254 3°6.665 308.7 10.2 308 23.2
2009-07-08 12:11:11 51°31.354 3°6.459 309.2 9.6 307 25.6
2009-07-08 12:12:12 51°31.457 3°6.248 309.5 10.3 308 28.7
2009-07-08 12:13:12 51°31.559 3°6.033 308.8 10.3 307 30.6
2009-07-08 12:14:12 51°31.664 3°5.816 309.4 10.1 307 30.7
2009-07-08 12:15:12 51°31.771 3°5.599 310 10.3 308 30.9
2009-07-08 12:16:12 51°31.879 3°5.382 308.9 10.4 307 30.9
2009-07-08 12:17:12 51°31.987 3°5.169 308.6 10 309 30.4
2009-07-08 12:18:12 51°32.097 3°4.961 309.1 10.5 310 30.7
2009-07-08 12:19:11 51°32.209 3°4.756 309.7 10.4 311 30.9
2009-07-08 12:20:12 51°32.321 3°4.55 309.5 10.3 313 30.3
2009-07-08 12:21:12 51°32.427 3°4.342 308.4 10 306 31.9
2009-07-08 12:22:12 51°32.531 3°4.142 309.4 9.9 310 33.3
2009-07-08 12:23:11 51°32.633 3°3.951 310.4 9.7 310 32.8
2009-07-08 12:24:12 51°32.741 3°3.747 310.2 9.8 310 29.9
2009-07-08 12:25:12 51°32.847 3°3.548 310 9.7 312 25.4
2009-07-08 12:26:12 51°32.952 3°3.347 308.7 9.7 310 22.8
2009-07-08 12:27:12 51°33.057 3°3.149 309.8 9.8 308 23.3
2009-07-08 12:28:12 51°33.162 3°2.949 308.9 9.8 309 21.3
2009-07-08 12:29:12 51°33.269 3°2.748 309.7 9.9 312 25.2
2009-07-08 12:30:12 51°33.376 3°2.547 309.1 10 308 28.3
2009-07-08 12:31:13 51°33.485 3°2.341 309.1 9.6 310 32
2009-07-08 12:32:13 51°33.593 3°2.142 308.7 9.8 311 35.6
2009-07-08 12:33:12 51°33.699 3°1.944 308.8 9.9 310 37
2009-07-08 12:34:12 51°33.806 3°1.742 310.4 10.2 312 36.7
2009-07-08 12:35:12 51°33.916 3°1.533 309.1 10.1 310 28.3
2009-07-08 12:36:13 51°34.023 3°1.326 308.8 9.5 312 20.3
2009-07-08 12:37:11 51°34.124 3°1.13 309.6 9.8 308 18.2
2009-07-08 12:38:12 51°34.233 3°0.922 309 9.8 309 15.2
2009-07-08 12:39:12 51°34.335 3°0.724 309.1 9.3 311 15.1
2009-07-08 12:40:12 51°34.443 3°0.524 308.7 9.9 310 18.7
2009-07-08 12:41:12 51°34.574 3°0.357 321.8 9.9 325 22.1
2009-07-08 12:42:12 51°34.673 3°0.242 306.5 4.3 314 22.8
2009-07-08 12:43:12 51°34.676 3°0.189 243 1.8 228 23.9
2009-07-08 12:44:12 51°34.644 3°0.158 227.5 2.6 212 24.6
2009-07-08 12:45:12 51°34.619 3°0.097 260.4 2.9 260 25.5
2009-07-08 12:46:12 51°34.625 3°0.021 281.8 3.1 292 25.3
2009-07-08 12:47:12 51°34.655 2°59.95 301 3.3 315 25.5
2009-07-08 12:48:12 51°34.696 2°59.886 305.3 3.6 318 26.7
2009-07-08 12:49:12 51°34.748 2°59.829 318.3 3.5 334 27.1
2009-07-08 12:50:12 51°34.796 2°59.797 314.6 3.2 328 28.8
2009-07-08 12:51:12 51°34.835 2°59.751 310.5 3 329 29.3
2009-07-08 12:52:12 51°34.883 2°59.713 325.2 3.2 345 29.8
2009-07-08 12:53:12 51°34.94 2°59.705 349.6 3.6 9 30.4
2009-07-08 12:54:12 51°35.002 2°59.742 18.5 4.4 32 28.5
2009-07-08 12:55:12 51°35.059 2°59.808 30.4 4.2 38 30.7
2009-07-08 12:56:12 51°35.108 2°59.89 50.2 4.4 58 30.7
2009-07-08 12:57:12 51°35.137 2°60 83.2 4.5 79 30.2
2009-07-08 12:58:12 51°35.133 3°0.114 117.1 4.1 107 27.4
2009-07-08 12:59:12 51°35.098 3°0.204 146.1 3.8 132 30.3
2009-07-08 13:00:12 51°35.057 3°0.28 148.1 3.8 131 29.6
2009-07-08 13:01:12 51°35.016 3°0.357 147.3 3.9 128 28.9
2009-07-08 13:02:11 51°34.976 3°0.432 146.9 3.6 127 27.3
2009-07-08 13:03:12 51°34.941 3°0.507 145.6 3.5 123 25.9
2009-07-08 13:04:12 51°34.908 3°0.58 146.3 3.3 127 24.7
2009-07-08 13:05:12 51°34.876 3°0.656 145.2 3.4 120 23.5
2009-07-08 13:06:12 51°34.844 3°0.73 146.6 3.3 125 23.1
2009-07-08 13:07:12 51°34.813 3°0.807 145.2 3.3 124 20.3
2009-07-08 13:08:12 51°34.781 3°0.885 145.4 3.6 122 20.7
2009-07-08 13:09:12 51°34.748 3°0.963 144.6 3.4 124 20.6
2009-07-08 13:10:12 51°34.716 3°1.04 145.3 3.4 126 20.4
2009-07-08 13:11:12 51°34.685 3°1.118 145.2 3.5 122 19.5
2009-07-08 13:12:12 51°34.653 3°1.194 145 3.4 126 19.7
2009-07-08 13:13:12 51°34.62 3°1.272 145.2 3.6 124 18.7
2009-07-08 13:14:12 51°34.589 3°1.349 145.3 3.4 126 19.6
2009-07-08 13:15:12 51°34.557 3°1.427 142.7 3.4 123 19.5
2009-07-08 13:16:12 51°34.526 3°1.504 146.4 3.4 127 20.8
2009-07-08 13:17:12 51°34.494 3°1.581 144.8 3.3 127 20
2009-07-08 13:18:12 51°34.462 3°1.654 156.4 3.1 132 20.5
2009-07-08 13:19:12 51°34.425 3°1.703 172.1 2.6 147 20.8
2009-07-08 13:20:12 51°34.389 3°1.745 171.1 2.8 146 23.3
2009-07-08 13:21:12 51°34.353 3°1.789 172 2.8 140 22.8
2009-07-08 13:22:12 51°34.318 3°1.826 179.1 2.4 145 24.3
2009-07-08 13:23:12 51°34.282 3°1.855 187.2 2.9 164 22.4
2009-07-08 13:24:12 51°34.244 3°1.859 208.1 1.8 167 25.9
2009-07-08 13:25:12 51°34.225 3°1.871 211.1 0.8 151 24.2
2009-07-08 13:26:11 51°34.214 3°1.887 221.2 0.6 170 25.5
2009-07-08 13:27:12 51°34.211 3°1.848 284.2 3.4 296 25.2
2009-07-08 13:28:12 51°34.253 3°1.69 284.3 8.6 287 23.1
2009-07-08 13:29:12 51°34.302 3°1.446 283.9 9.8 287 19.6
2009-07-08 13:30:12 51°34.355 3°1.193 284.3 9.6 287 17.7
2009-07-08 13:31:12 51°34.409 3°0.944 284.4 10.1 290 17.5
2009-07-08 13:32:12 51°34.462 3°0.693 284.7 10.1 290 19.1
2009-07-08 13:33:12 51°34.52 3°0.444 286.1 9.4 291 22
2009-07-08 13:34:12 51°34.586 3°0.329 327.4 3.4 356 23.1
2009-07-08 13:35:12 51°34.624 3°0.354 6.2 2.3 45 23.9
2009-07-08 13:36:12 51°34.649 3°0.398 12.4 2.1 52 22.1
2009-07-08 13:37:12 51°34.666 3°0.444 13.1 1.7 64 22.7
2009-07-08 13:38:12 51°34.678 3°0.488 21.2 2 76 23.6
2009-07-08 13:39:12 51°34.686 3°0.531 35.7 1.7 71 22.8
2009-07-08 13:40:12 51°34.695 3°0.572 41.8 1.7 67 20.8
2009-07-08 13:41:12 51°34.704 3°0.614 39.3 1.4 58 22.1
2009-07-08 13:42:12 51°34.71 3°0.655 47.4 1.6 81 22.8
2009-07-08 13:43:12 51°34.717 3°0.693 51.8 1.5 61 21.6
2009-07-08 13:44:12 51°34.727 3°0.736 45.3 1.9 67 22.2
2009-07-08 13:45:12 51°34.743 3°0.784 30.8 2.5 48 21.4
2009-07-08 13:46:12 51°34.795 3°0.807 320.9 3.3 339 22
2009-07-08 13:47:12 51°34.788 3°0.753 206 3.8 192 21.5
2009-07-08 13:48:12 51°34.69 3°0.713 204.8 7.4 205 21.2
2009-07-08 13:49:12 51°34.553 3°0.623 204.9 10.4 199 21.1
2009-07-08 13:50:12 51°34.407 3°0.516 207.1 9.7 211 18.9
2009-07-08 13:51:12 51°34.257 3°0.418 203.8 9.9 206 17.6
2009-07-08 13:52:12 51°34.106 3°0.316 207.1 10.1 198 17.5
2009-07-08 13:53:12 51°33.957 3°0.207 208.9 9.9 202 16.3
2009-07-08 13:54:12 51°33.806 3°0.108 206.8 9.8 195 15.2
2009-07-08 13:55:12 51°33.657 3°0.005 205.1 9.8 205 14.6
2009-07-08 13:56:12 51°33.504 2°59.908 202 10.3 197 13.6
2009-07-08 13:57:12 51°33.349 2°59.812 202.8 10.5 202 17.5
2009-07-08 13:58:12 51°33.19 2°59.72 203 10 204 24.8
2009-07-08 13:59:12 51°33.03 2°59.639 202.4 10.5 190 32.8
2009-07-08 14:00:13 51°32.869 2°59.541 207.2 9.9 211 34.2
2009-07-08 14:01:12 51°32.718 2°59.43 210.6 10.3 204 34.7
2009-07-08 14:02:13 51°32.571 2°59.301 212.5 10.1 208 36
2009-07-08 14:03:12 51°32.432 2°59.169 214 10.1 205 36.9
2009-07-08 14:04:12 51°32.296 2°59.027 216.3 9.6 219 36.7
2009-07-08 14:05:12 51°32.162 2°58.887 218.2 9.9 205 37
2009-07-08 14:06:12 51°32.028 2°58.743 218.6 9.8 207 38.1
2009-07-08 14:07:13 51°31.893 2°58.596 219.3 9.4 220 36.6
2009-07-08 14:08:12 51°31.761 2°58.457 217.1 9.9 211 35
2009-07-08 14:09:13 51°31.632 2°58.305 223.1 9.3 221 33.9
2009-07-08 14:10:12 51°31.509 2°58.147 223.5 9.8 214 33.3
2009-07-08 14:11:13 51°31.382 2°57.986 222.5 9.5 212 32.7
2009-07-08 14:12:12 51°31.259 2°57.83 221 9.8 220 32.6
2009-07-08 14:13:12 51°31.135 2°57.67 223 9.8 215 32.3
2009-07-08 14:14:13 51°31.007 2°57.511 222.5 9.4 225 31.7
2009-07-08 14:15:12 51°30.884 2°57.357 221 9.4 219 32
2009-07-08 14:16:13 51°30.756 2°57.2 223 9.7 215 32.2
2009-07-08 14:17:12 51°30.632 2°57.041 222.6 9.8 218 32.8
2009-07-08 14:18:13 51°30.504 2°56.875 222.3 9.6 226 32
2009-07-08 14:19:12 51°30.379 2°56.717 223.5 9.7 215 32.1
2009-07-08 14:20:12 51°30.252 2°56.56 221.2 9.7 218 32.8
2009-07-08 14:21:12 51°30.127 2°56.4 223.3 9.3 221 32
2009-07-08 14:22:12 51°30 2°56.242 222.9 9.7 215 31.7
2009-07-08 14:23:13 51°29.876 2°56.078 225 9.3 214 30.4
2009-07-08 14:24:12 51°29.756 2°55.923 222.1 9.4 220 30.1
2009-07-08 14:25:12 51°29.636 2°55.762 222.8 9.4 220 29.3
2009-07-08 14:26:12 51°29.514 2°55.603 221.2 9.5 217 29.4
2009-07-08 14:27:12 51°29.396 2°55.441 224.3 9.3 224 28.4
2009-07-08 14:28:12 51°29.277 2°55.28 223.8 9.5 216 27.9
2009-07-08 14:29:12 51°29.157 2°55.114 222.6 9.3 228 27.4
2009-07-08 14:30:12 51°29.038 2°54.954 221.8 9.3 226 27.3
2009-07-08 14:31:12 51°28.914 2°54.796 220.6 9.9 213 28.4
2009-07-08 14:32:13 51°28.791 2°54.63 222.3 9.7 220 26.7
2009-07-08 14:33:12 51°28.673 2°54.461 222.9 9.7 222 26
2009-07-08 14:34:13 51°28.552 2°54.286 222.1 9.7 218 24.9
2009-07-08 14:35:12 51°28.433 2°54.118 219.7 9.7 223 24
2009-07-08 14:36:12 51°28.312 2°53.946 224.6 9.4 220 24.4
2009-07-08 14:37:13 51°28.191 2°53.773 221.5 9.6 223 24.2
2009-07-08 14:38:12 51°28.077 2°53.597 223.2 9.7 224 22.3
2009-07-08 14:39:13 51°27.961 2°53.411 224 9.6 217 23.5
2009-07-08 14:40:12 51°27.851 2°53.232 226.1 9.6 230 23
2009-07-08 14:41:13 51°27.733 2°53.046 225 9.7 225 21.8
2009-07-08 14:42:12 51°27.619 2°52.87 223.1 9.6 223 22.5
2009-07-08 14:43:12 51°27.507 2°52.69 224.9 9.5 226 23.8
2009-07-08 14:44:12 51°27.393 2°52.512 226.3 9.4 229 22.5
2009-07-08 14:45:12 51°27.28 2°52.341 225.1 9.2 228 23.2
2009-07-08 14:46:12 51°27.169 2°52.172 224.3 9.1 223 22.6
2009-07-08 14:47:12 51°27.06 2°52 225 9.2 225 21.3
2009-07-08 14:48:12 51°26.948 2°51.83 225.6 9.5 225 26.2
2009-07-08 14:49:12 51°26.834 2°51.661 224.6 9.5 221 26.7
2009-07-08 14:50:12 51°26.72 2°51.489 226 9.3 220 26.1
2009-07-08 14:51:12 51°26.607 2°51.318 225.1 9.3 227 26.3
2009-07-08 14:52:13 51°26.493 2°51.145 228.7 9.2 220 29
2009-07-08 14:53:12 51°26.391 2°50.965 229.6 9.2 230 25.4
2009-07-08 14:54:13 51°26.286 2°50.774 229.3 9.4 232 25.3
2009-07-08 14:55:12 51°26.184 2°50.591 229.4 9.4 229 25.8
2009-07-08 14:56:12 51°26.083 2°50.405 229 9.4 226 25.2
2009-07-08 14:57:12 51°25.978 2°50.22 229.2 9.1 230 24.7
2009-07-08 14:58:12 51°25.876 2°50.035 231.1 9.3 226 25.1
2009-07-08 14:59:12 51°25.79 2°49.897 218.9 4.7 204 24.9
2009-07-08 15:00:12 51°25.735 2°49.887 198.4 2.7 177 24.9
2009-07-08 15:01:13 51°25.697 2°49.903 196.8 2.3 156 24.6
2009-07-08 15:02:13 51°25.643 2°49.899 210.6 3.9 197 24.8
2009-07-08 15:03:13 51°25.594 2°49.842 227.7 3.7 217 25.2
2009-07-08 15:04:12 51°25.554 2°49.784 231.6 2.8 227 24.8
2009-07-08 15:05:12 51°25.526 2°49.718 238.1 3.5 243 24.2
2009-07-08 15:06:13 51°25.492 2°49.635 238.1 3.7 239 24.9
2009-07-08 15:07:12 51°25.467 2°49.55 249.4 3 256 24.7
2009-07-08 15:08:13 51°25.456 2°49.479 248.9 2.6 256 24.5
2009-07-08 15:09:12 51°25.433 2°49.417 233.8 3 226 25.1
2009-07-08 15:10:13 51°25.398 2°49.353 233.1 3.3 223 25.3
2009-07-08 15:11:13 51°25.357 2°49.294 225 3.2 220 24.8
2009-07-08 15:12:13 51°25.317 2°49.243 225.7 3 221 24.7
2009-07-08 15:13:13 51°25.282 2°49.184 233.9 3.1 232 24.9
2009-07-08 15:14:12 51°25.253 2°49.12 234.8 3 235 24.5
2009-07-08 15:15:13 51°25.223 2°49.057 235.5 3 228 25.1
2009-07-08 15:16:12 51°25.193 2°48.996 232.1 2.9 218 25.6
2009-07-08 15:17:13 51°25.153 2°48.946 224.3 3.1 219 25.7
2009-07-08 15:18:13 51°25.116 2°48.89 230.2 3.1 223 26
2009-07-08 15:19:13 51°25.08 2°48.83 230.2 3.1 223 26.5
2009-07-08 15:20:12 51°25.046 2°48.771 230.9 3.1 227 26.5
2009-07-08 15:21:13 51°25.01 2°48.708 230.7 3.1 232 26.6
2009-07-08 15:22:13 51°24.981 2°48.64 244.8 3.2 247 25.2
2009-07-08 15:23:13 51°24.966 2°48.56 253.9 3.2 252 28.1
2009-07-08 15:24:12 51°24.956 2°48.469 254.8 3.6 260 26.4
2009-07-08 15:25:12 51°24.942 2°48.375 253.3 3.5 255 28.7
2009-07-08 15:26:13 51°24.926 2°48.288 250.4 3.3 251 28.8
2009-07-08 15:27:13 51°24.899 2°48.212 230.7 3.4 230 29.4
2009-07-08 15:28:12 51°24.858 2°48.156 218.1 3.3 213 29.9
2009-07-08 15:29:13 51°24.809 2°48.11 215.1 3.4 216 28.2
2009-07-08 15:30:13 51°24.76 2°48.065 215.7 3.4 210 28.4
2009-07-08 15:31:13 51°24.712 2°48.017 218.4 3.3 208 28.8
2009-07-08 15:32:12 51°24.664 2°47.969 215.1 3.5 207 29.2
2009-07-08 15:33:13 51°24.615 2°47.921 215.8 3.4 217 28.5
2009-07-08 15:34:12 51°24.567 2°47.873 214.5 3.4 209 28.2
2009-07-08 15:35:12 51°24.517 2°47.827 211.6 3.4 212 27.6
2009-07-08 15:36:13 51°24.478 2°47.778 227 2.7 233 28.2
2009-07-08 15:37:13 51°24.447 2°47.726 230.7 2.9 233 26.1
2009-07-08 15:38:13 51°24.423 2°47.655 245.6 3.1 244 27.6
2009-07-08 15:39:13 51°24.409 2°47.573 256.2 3.2 265 28.9
2009-07-08 15:40:13 51°24.414 2°47.488 275.6 3.4 287 28.9
2009-07-08 15:41:13 51°24.449 2°47.417 309.6 3 322 30.1
2009-07-08 15:42:13 51°24.487 2°47.394 330.3 2.2 350 31
2009-07-08 15:43:13 51°24.517 2°47.402 357 2.1 15 30.8
2009-07-08 15:44:12 51°24.566 2°47.464 47 6.2 49 31.8
2009-07-08 15:45:12 51°24.662 2°47.657 55.8 11.6 53 31.2
2009-07-08 15:46:12 51°24.775 2°47.92 59.6 12.3 57 29.8
2009-07-08 15:47:12 51°24.868 2°48.203 70 12 66 28.8
2009-07-08 15:48:12 51°24.936 2°48.407 48.5 5.4 47 28
2009-07-08 15:49:12 51°24.969 2°48.478 71.8 1.9 67 27.6
2009-07-08 15:50:12 51°24.98 2°48.52 77.6 1.5 70 28.1
2009-07-08 15:51:12 51°24.989 2°48.551 71.5 1.1 63 27.8
2009-07-08 15:52:13 51°24.996 2°48.574 66.9 0.7 70 26.7
2009-07-08 15:53:12 51°25.002 2°48.587 78.5 0.6 60 26.6
2009-07-08 15:54:13 51°25.006 2°48.598 95.9 0.3 73 26.3
2009-07-08 15:55:13 51°25.013 2°48.607 111.3 0.8 33 25.5
2009-07-08 15:56:12 51°25.022 2°48.617 119.2 0.5 22 25.5
2009-07-08 15:57:12 51°25.025 2°48.642 133.6 2 118 26.7
2009-07-08 15:58:13 51°24.967 2°48.655 206.9 5.3 212 25.6
2009-07-08 15:59:13 51°24.92 2°48.496 244.9 8.4 246 26.1
2009-07-08 16:00:13 51°24.84 2°48.272 238.6 10.5 236 27.4
2009-07-08 16:01:13 51°24.747 2°48.031 239.9 10.6 233 28
2009-07-08 16:02:13 51°24.651 2°47.792 233 10.7 239 28.9
2009-07-08 16:03:13 51°24.54 2°47.573 229.9 10.8 234 30.2
2009-07-08 16:04:13 51°24.422 2°47.357 229.7 10.9 227 30
2009-07-08 16:05:13 51°24.306 2°47.14 230.1 10.7 224 29.3
2009-07-08 16:06:13 51°24.193 2°46.923 230.2 10.7 230 28.4
2009-07-08 16:07:13 51°24.079 2°46.707 230.2 10.8 233 29
2009-07-08 16:08:13 51°23.964 2°46.488 231.9 10.8 236 28.6
2009-07-08 16:09:13 51°23.848 2°46.267 229.4 11.1 233 28
2009-07-08 16:10:13 51°23.732 2°46.043 231.5 11 239 28.4
2009-07-08 16:11:13 51°23.616 2°45.823 231 10.7 229 28.4
2009-07-08 16:12:13 51°23.501 2°45.603 230 11 229 28.1
2009-07-08 16:13:13 51°23.385 2°45.378 230.4 10.9 231 27.1
2009-07-08 16:14:13 51°23.302 2°45.122 249.4 10.9 252 27.9
2009-07-08 16:15:13 51°23.244 2°44.842 252.2 11.2 253 27.4
2009-07-08 16:16:12 51°23.188 2°44.566 251.7 11 251 27.2
2009-07-08 16:17:13 51°23.128 2°44.281 249.8 11.1 251 26.6
2009-07-08 16:18:13 51°23.068 2°44.001 249.6 11.1 251 24.8
2009-07-08 16:19:13 51°23.006 2°43.721 249.4 11.2 250 27.5
2009-07-08 16:20:12 51°22.942 2°43.448 249 11.1 249 27.4
2009-07-08 16:21:12 51°22.875 2°43.176 247.1 11.1 250 26.3
2009-07-08 16:22:13 51°22.802 2°42.902 246.1 11 240 27.4
2009-07-08 16:23:13 51°22.733 2°42.637 246.3 10.5 240 27.6
2009-07-08 16:24:13 51°22.676 2°42.416 245.2 7.9 246 26.5
2009-07-08 16:25:13 51°22.623 2°42.24 235.5 6.8 239 26.8
2009-07-08 16:26:13 51°22.547 2°42.169 187.7 5.6 184 28.9
2009-07-08 16:27:13 51°22.44 2°42.188 172.8 7.6 174 28.7
2009-07-08 16:28:13 51°22.29 2°42.268 156.5 10.7 153 27.5
2009-07-08 16:29:13 51°22.137 2°42.426 141.6 11.2 138 27
2009-07-08 16:30:13 51°22.004 2°42.63 136.7 11.1 139 25.1
2009-07-08 16:31:13 51°21.873 2°42.838 138 10.8 139 23.4
2009-07-08 16:32:13 51°21.746 2°43.053 134.7 11.5 135 24.6
2009-07-08 16:33:13 51°21.62 2°43.272 133.9 11.1 133 19.9
2009-07-08 16:34:13 51°21.496 2°43.493 130.4 11.1 130 24
2009-07-08 16:35:12 51°21.383 2°43.722 129.2 11 129 22.1
2009-07-08 16:36:13 51°21.269 2°43.957 130.7 11.3 129 23.6
2009-07-08 16:37:13 51°21.158 2°44.193 129.2 11.1 135 24.8
2009-07-08 16:38:13 51°21.047 2°44.431 127.5 11.2 130 26.3
2009-07-08 16:39:12 51°20.935 2°44.666 128.2 11.4 128 27
2009-07-08 16:40:13 51°20.819 2°44.911 128.6 11.3 129 27.1
2009-07-08 16:41:12 51°20.715 2°45.155 126.8 11.2 131 26.1
2009-07-08 16:42:13 51°20.609 2°45.399 126.8 11 127 25.1
2009-07-08 16:43:13 51°20.503 2°45.643 124.2 11.1 124 23.7
2009-07-08 16:44:12 51°20.398 2°45.88 127.1 11.2 126 21.2
2009-07-08 16:45:13 51°20.289 2°46.122 126.2 11 132 17.8
2009-07-08 16:46:13 51°20.185 2°46.361 126.7 10.9 122 14.3
2009-07-08 16:47:13 51°20.078 2°46.599 124.4 11 127 16.2
2009-07-08 16:48:13 51°19.97 2°46.839 125 11.6 121 18.6
2009-07-08 16:49:13 51°19.857 2°47.079 127.7 11.5 125 21.3
2009-07-08 16:50:13 51°19.743 2°47.325 125.7 11.6 129 22.3
2009-07-08 16:51:13 51°19.638 2°47.571 125.5 11 129 22.3
2009-07-08 16:52:13 51°19.534 2°47.808 127 10.8 124 21.7
2009-07-08 16:53:13 51°19.425 2°48.043 125.9 11 130 20.7
2009-07-08 16:54:12 51°19.32 2°48.28 127.2 11 134 18.7
2009-07-08 16:55:13 51°19.211 2°48.519 125.7 10.8 122 16.7
2009-07-08 16:56:13 51°19.1 2°48.749 124.9 11.1 131 15.6
2009-07-08 16:57:12 51°18.993 2°48.978 126.3 10.7 121 13.3
2009-07-08 16:58:13 51°18.883 2°49.208 127.4 10.9 130 12.3
2009-07-08 16:59:12 51°18.775 2°49.431 125.7 10.8 121 11.1
2009-07-08 17:00:13 51°18.665 2°49.662 125.7 10.7 128 12
2009-07-08 17:01:13 51°18.552 2°49.895 128.3 11.1 125 13.7
2009-07-08 17:02:13 51°18.441 2°50.127 125.1 10.7 130 14.2
2009-07-08 17:03:13 51°18.33 2°50.358 129.5 11 125 14.4
2009-07-08 17:04:13 51°18.218 2°50.593 126.4 10.9 131 13.6
2009-07-08 17:05:14 51°18.108 2°50.832 125.7 11 130 13.1
2009-07-08 17:06:13 51°17.999 2°51.058 123.4 10.2 131 12
2009-07-08 17:07:13 51°17.891 2°51.288 125.9 10.9 129 11.2
2009-07-08 17:08:13 51°17.779 2°51.515 128.6 10.7 133 10.2
2009-07-08 17:09:12 51°17.654 2°51.717 136 11.4 137 10.2
2009-07-08 17:10:12 51°17.513 2°51.905 137.3 11.1 136 10.6
2009-07-08 17:11:13 51°17.363 2°52.08 145.2 11 148 11.6
2009-07-08 17:12:13 51°17.194 2°52.202 156.1 11.5 159 11.3
2009-07-08 17:13:13 51°17.021 2°52.314 155.7 10.9 157 10.2
2009-07-08 17:14:12 51°16.854 2°52.425 155.2 11.3 158 10.1
2009-07-08 17:15:13 51°16.681 2°52.54 155.8 11.1 156 10.7
2009-07-08 17:16:13 51°16.511 2°52.658 155.4 11.3 152 12
2009-07-08 17:17:12 51°16.342 2°52.772 154.1 11.5 159 12.3
2009-07-08 17:18:13 51°16.165 2°52.891 153.6 11.5 158 12.1
2009-07-08 17:19:13 51°15.992 2°53.01 155.1 11.3 153 11.9
2009-07-08 17:20:13 51°15.816 2°53.121 155.3 11.4 156 11.5
2009-07-08 17:21:12 51°15.642 2°53.241 150.7 11.6 154 11.4
2009-07-08 17:22:13 51°15.471 2°53.384 147.3 10.9 155 10.7
2009-07-08 17:23:13 51°15.311 2°53.542 143.8 11.2 150 9.9
2009-07-08 17:24:12 51°15.156 2°53.704 141.7 11 147 9.8
2009-07-08 17:25:12 51°15.004 2°53.867 141.9 11.3 146 9.7
2009-07-08 17:26:12 51°14.871 2°54.053 126.6 10.4 128 9.6
2009-07-08 17:27:13 51°14.755 2°54.271 126.6 10.5 131 10.4
2009-07-08 17:28:13 51°14.643 2°54.487 125.9 10.4 130 10.2
2009-07-08 17:29:13 51°14.529 2°54.703 126.6 10.8 125 10.6
2009-07-08 17:30:12 51°14.421 2°54.92 123.9 10.6 129 10.2
2009-07-08 17:31:12 51°14.313 2°55.153 126.4 10.9 127 10.7
2009-07-08 17:32:13 51°14.208 2°55.328 141.1 7.8 141 11.2
2009-07-08 17:33:12 51°14.105 2°55.423 153.2 7.3 154 10.9
2009-07-08 17:34:13 51°13.99 2°55.508 154.6 7.9 155 10.7
2009-07-08 17:35:12 51°13.867 2°55.597 154.9 8.3 154 11
2009-07-08 17:36:16 51°13.751 2°55.723 135.9 6.8 135 10.8
2009-07-08 17:37:17 51°13.696 2°55.833 119.2 4.4 122 -999
2009-07-08 17:38:17 51°13.67 2°55.926 110.3 3.5 110 -999
2009-07-08 17:39:17 51°13.662 2°55.957 125.1 0.2 129 -999